Old Saybrook, CT (06475)

11:58 PM EDT on September 19, 2014 (GMT -0400)
Beamon Creek OS | Change Station
CLOSE
Current Station
Personal Weather Station
Location: Old Saybrook, CT
Elevation: 10 ft
Nearby Weather Stations

Elev 10 ft 41.27 °N, 72.37 °W | Updated 4 minutes ago

Clear
Clear
54.3 °F
Feels Like 54.3 °F
N
4.7
Wind Variable Wind from WNW

Today
High -- | Low -- °F
--% Chance of Precip.
Yesterday
High -- | Low -- °F
Precip. -- in
6:33 AM 6:51 PM
Waning Crescent, 15% visible
Pressure 30.40 in
Visibility 10.0 miles
Clouds Clear
Dew Point 46 °F
Humidity 74%
Rainfall 0.00 in
Snow Depth Not available.
UV 0 out of 12
Pollen 3.10 out of 12
Air Quality Not available.
Flu Activity Not available.
METAR KSNC 200335Z AUTO 00000KT 10SM CLR 08/06 A3040 RMK AO2

More Conditions Fewer Conditions

Pressure 30.40 in
Visibility 10.0 miles
Clouds Clear
Dew Point 46 °F
Humidity 74%
Rainfall 0.00 in
Snow Depth Not available.
UV 0 out of 12
Pollen 3.10 out of 12
Air Quality Not available.
Flu Activity Not available.
METAR KSNC 200335Z AUTO 00000KT 10SM CLR 08/06 A3040 RMK AO2

More Conditions Fewer Conditions

10-Day Weather Forecast

Almanac

Astronomy

Sep. 19, 2014 Rise Set
Actual Time 6:33 AM EDT 6:51 PM EDT
Civil Twilight 6:06 AM EDT 7:19 PM EDT
Nautical Twilight 5:33 AM EDT 7:51 PM EDT
Astronomical Twilight 5:00 AM EDT 8:25 PM EDT
Moon 2:14 AM EDT (9/19) 4:20 PM EDT (9/19)
Length of Visible Light 13h 13m
Length of Day
12h 18m
Tomorrow will be 2m 43s shorter.
Waning Crescent, 15% of the Moon is Illuminated
Today
Waning Crescent
Sep 24
New
Oct 1
First Quarter
Oct 8
Full
Oct 15
Last Quarter

Today's Extremes

State Highs State Lows

Community

WunderPhotos

Upload Photos

1,754,777 photos uploaded!

WunderBlogs® & News

Nearby

Air Quality

  Air Quality AQ Index Pollutant
Friday Good
OZONE
Friday Good
PM2.5
Saturday Good
OZONE
Saturday Good
PM2.5
Sunday Good
OZONE
Sunday Good
PM2.5
Monday Good
OZONE
Monday Good
PM2.5

Snow Depth

Station Depth Elevation
No new snow has been reported.

Earthquake Activity

City Distance Mag. Time & Date
No recent earthquake activity has been reported nearby.
Minimum magnitude displayed is 2.5.

Coastal Water Temperatures

Place Temperature
New London, CT 66.0 °F
Newport, RI 66.0 °F
Quonset Point, RI 68.0 °F
Conimicut Light, RI 68.0 °F
Providence, RI 66.0 °F

Nearby Weather Stations